Time;durP1;ratioP1;P1;durP2;ratioP2;P2;SDS_P1;SDS_P2;PMS_P1;PMS_P2;Temp;Humidity;BMP_temperature;BMP_pressure;BME280_temperature;BME280_humidity;BME280_pressure;Samples;Min_cycle;Max_cycle;Signal;HPM_P1;HPM_P2
2022/05/31 00:00:42;;;;;;;0.75;0.28;;;22.20;61.20;;;;;;5053539;28;20662;-78
2022/05/31 00:03:09;;;;;;;0.40;0.40;;;22.20;61.30;;;;;;5053727;28;20203;-78
2022/05/31 00:05:37;;;;;;;1.65;0.40;;;22.20;61.40;;;;;;5053406;28;20230;-78
2022/05/31 00:08:05;;;;;;;1.60;0.20;;;22.20;61.50;;;;;;5053005;28;20235;-78
2022/05/31 00:10:32;;;;;;;0.63;0.28;;;22.20;61.60;;;;;;5053817;28;20670;-78
2022/05/31 00:12:58;;;;;;;1.45;0.30;;;22.20;61.60;;;;;;5053404;28;20586;-78
2022/05/31 00:15:25;;;;;;;1.63;0.30;;;22.20;61.70;;;;;;5053434;28;20633;-78
2022/05/31 00:17:52;;;;;;;0.20;0.20;;;22.20;61.80;;;;;;5053537;28;20195;-78
2022/05/31 00:20:20;;;;;;;0.75;0.15;;;22.20;61.90;;;;;;5053592;28;20196;-78
2022/05/31 00:22:49;;;;;;;0.20;0.20;;;22.20;62.00;;;;;;5053398;28;20200;-78
2022/05/31 00:25:17;;;;;;;0.95;0.43;;;22.20;62.10;;;;;;5053491;28;20297;-77
2022/05/31 00:27:44;;;;;;;0.30;0.30;;;22.20;62.10;;;;;;5053597;28;20685;-77
2022/05/31 00:30:13;;;;;;;0.35;0.20;;;22.20;62.30;;;;;;5053810;28;20234;-77
2022/05/31 00:32:43;;;;;;;0.35;0.20;;;22.20;62.40;;;;;;5053239;28;20589;-77
2022/05/31 00:35:15;;;;;;;0.40;0.28;;;22.10;62.40;;;;;;5053332;28;20222;-77
2022/05/31 00:37:42;;;;;;;0.47;0.20;;;22.20;62.60;;;;;;5053363;28;20238;-77
2022/05/31 00:40:13;;;;;;;0.13;0.13;;;22.20;62.80;;;;;;5053355;28;20211;-77
2022/05/31 00:42:54;;;;;;;3.90;0.20;;;22.20;62.80;;;;;;5054434;28;20189;-77
2022/05/31 00:45:23;;;;;;;1.15;0.20;;;22.20;63.00;;;;;;5053021;28;20224;-77
2022/05/31 00:47:51;;;;;;;0.22;0.22;;;22.20;63.20;;;;;;5053201;28;20291;-77
2022/05/31 00:50:26;;;;;;;2.25;0.22;;;22.20;63.40;;;;;;5053274;28;20587;-77
2022/05/31 00:52:58;;;;;;;0.80;0.25;;;22.20;63.40;;;;;;5053400;28;20184;-77
2022/05/31 00:55:30;;;;;;;0.75;0.43;;;22.20;63.60;;;;;;5053250;28;20220;-77
2022/05/31 00:58:01;;;;;;;2.65;0.20;;;22.20;63.80;;;;;;5053290;28;20185;-77
2022/05/31 01:00:28;;;;;;;0.77;0.10;;;22.20;64.00;;;;;;5053153;28;20242;-77
2022/05/31 01:02:56;;;;;;;0.30;0.13;;;22.20;64.10;;;;;;5053170;28;20200;-77
2022/05/31 01:05:24;;;;;;;0.20;0.17;;;22.10;64.00;;;;;;5052687;28;20232;-77
2022/05/31 01:07:51;;;;;;;0.20;0.20;;;22.10;64.00;;;;;;5053078;28;20208;-77
2022/05/31 01:10:18;;;;;;;0.93;0.10;;;22.20;64.10;;;;;;5053002;28;20216;-77
2022/05/31 01:12:49;;;;;;;0.50;0.38;;;22.20;64.10;;;;;;5052785;28;20200;-77
2022/05/31 01:15:18;;;;;;;1.75;0.30;;;22.20;64.40;;;;;;5052682;28;20561;-77
2022/05/31 01:17:46;;;;;;;0.20;0.20;;;22.20;64.60;;;;;;5053022;28;20209;-77
2022/05/31 01:20:16;;;;;;;1.75;0.20;;;22.20;64.80;;;;;;5054504;28;20282;-77
2022/05/31 01:22:46;;;;;;;0.20;0.20;;;22.20;64.90;;;;;;5056809;28;20286;-77
2022/05/31 01:25:25;;;;;;;2.05;0.30;;;22.10;64.90;;;;;;5056825;28;20251;-77
2022/05/31 01:28:04;;;;;;;1.08;0.22;;;22.20;65.20;;;;;;5056871;28;20188;-77
2022/05/31 01:30:33;;;;;;;2.38;0.30;;;22.20;65.40;;;;;;5057488;28;20240;-77
2022/05/31 01:33:04;;;;;;;0.32;0.22;;;22.10;65.40;;;;;;5056820;28;20238;-77
2022/05/31 01:35:35;;;;;;;2.75;0.30;;;22.10;65.50;;;;;;5057126;28;20228;-77
2022/05/31 01:38:05;;;;;;;0.20;0.20;;;22.10;65.60;;;;;;5056988;28;20552;-77
2022/05/31 01:40:40;;;;;;;0.10;0.10;;;22.10;65.80;;;;;;5056346;28;20180;-77
2022/05/31 01:43:06;;;;;;;1.38;0.30;;;22.20;66.00;;;;;;5056325;28;20190;-77
2022/05/31 01:45:39;;;;;;;1.10;0.30;;;22.10;66.00;;;;;;5056318;28;20227;-77
2022/05/31 01:48:07;;;;;;;0.38;0.30;;;22.10;66.10;;;;;;5056194;28;20192;-77
2022/05/31 01:50:37;;;;;;;1.40;0.35;;;22.10;66.30;;;;;;5056042;28;20228;-77
2022/05/31 01:53:05;;;;;;;0.50;0.28;;;22.10;66.40;;;;;;5055801;28;20296;-77
2022/05/31 01:55:34;;;;;;;0.55;0.20;;;22.10;66.90;;;;;;5055879;28;20306;-77
2022/05/31 01:58:03;;;;;;;0.65;0.20;;;22.10;66.50;;;;;;5056196;28;20200;-77
2022/05/31 02:00:30;;;;;;;2.75;0.82;;;22.10;66.70;;;;;;5055886;28;20196;-77
2022/05/31 02:03:01;;;;;;;1.17;0.25;;;22.10;66.80;;;;;;5056658;28;20210;-77
2022/05/31 02:05:28;;;;;;;0.30;0.28;;;22.10;67.00;;;;;;5055470;28;20318;-77
2022/05/31 02:07:59;;;;;;;0.55;0.20;;;22.10;67.00;;;;;;5055708;28;20236;-77
2022/05/31 02:10:25;;;;;;;0.20;0.20;;;22.10;67.10;;;;;;5055590;28;20220;-77
2022/05/31 02:12:53;;;;;;;0.20;0.20;;;22.10;67.30;;;;;;5055586;28;20204;-77
2022/05/31 02:15:21;;;;;;;0.38;0.22;;;22.10;67.30;;;;;;5055545;28;20227;-77
2022/05/31 02:17:48;;;;;;;0.20;0.20;;;22.10;67.40;;;;;;5055181;28;20689;-77
2022/05/31 02:20:15;;;;;;;0.20;0.20;;;22.10;67.50;;;;;;5055738;28;20227;-77
2022/05/31 02:22:42;;;;;;;1.85;0.20;;;22.10;67.60;;;;;;5055177;28;20198;-77
2022/05/31 02:25:10;;;;;;;0.77;0.20;;;22.10;67.60;;;;;;5055614;28;20328;-77
2022/05/31 02:27:37;;;;;;;0.65;0.22;;;22.10;67.70;;;;;;5055361;28;20200;-77
2022/05/31 02:30:06;;;;;;;0.25;0.10;;;22.10;67.80;;;;;;5054819;28;20710;-77
2022/05/31 02:32:33;;;;;;;0.43;0.43;;;22.10;67.80;;;;;;5054516;28;20204;-77
2022/05/31 02:35:01;;;;;;;0.80;0.20;;;22.10;67.90;;;;;;5055235;28;20305;-77
2022/05/31 02:37:28;;;;;;;0.15;0.15;;;22.10;67.90;;;;;;5055196;28;20196;-77
2022/05/31 02:39:55;;;;;;;0.20;0.20;;;22.10;68.00;;;;;;5055178;28;20206;-77
2022/05/31 02:42:23;;;;;;;0.13;0.13;;;22.10;68.00;;;;;;5055082;28;20299;-77
2022/05/31 02:44:51;;;;;;;0.20;0.20;;;22.10;68.90;;;;;;5054904;28;20216;-77
2022/05/31 02:47:18;;;;;;;0.20;0.20;;;22.00;68.00;;;;;;5054951;28;20196;-77
2022/05/31 02:49:45;;;;;;;1.65;0.30;;;22.10;68.30;;;;;;5054949;28;20223;-77
2022/05/31 02:52:12;;;;;;;0.43;0.28;;;22.10;68.40;;;;;;5054931;28;20204;-77
2022/05/31 02:54:39;;;;;;;1.13;0.38;;;22.10;68.60;;;;;;5054420;28;20226;-77
2022/05/31 02:57:07;;;;;;;0.22;0.22;;;22.10;68.60;;;;;;5054816;28;20206;-77
2022/05/31 02:59:35;;;;;;;0.32;0.20;;;22.10;68.70;;;;;;5054378;28;20783;-77
2022/05/31 03:02:02;;;;;;;0.22;0.20;;;22.10;68.90;;;;;;5054434;28;20678;-77
2022/05/31 03:04:29;;;;;;;0.20;0.20;;;22.10;69.00;;;;;;5054657;28;20240;-77
2022/05/31 03:07:01;;;;;;;2.65;0.30;;;22.10;69.10;;;;;;5054601;28;20227;-77
2022/05/31 03:09:28;;;;;;;0.80;0.20;;;22.10;69.10;;;;;;5054498;28;20293;-77
2022/05/31 03:11:58;;;;;;;1.55;0.20;;;22.10;69.30;;;;;;5054461;28;20208;-77
2022/05/31 03:14:29;;;;;;;1.38;0.30;;;22.10;69.30;;;;;;5054069;28;20216;-77
2022/05/31 03:17:02;;;;;;;2.15;0.30;;;22.10;69.40;;;;;;5054468;28;20181;-77
2022/05/31 03:19:32;;;;;;;0.30;0.30;;;22.10;69.40;;;;;;5054473;28;20209;-77
2022/05/31 03:22:05;;;;;;;0.52;0.20;;;22.10;69.50;;;;;;5054346;28;20628;-77
2022/05/31 03:24:39;;;;;;;2.92;0.20;;;22.10;69.50;;;;;;5054414;28;20228;-77
2022/05/31 03:27:09;;;;;;;1.27;0.77;;;22.10;69.70;;;;;;5054352;28;20190;-77
2022/05/31 03:29:38;;;;;;;0.30;0.30;;;22.10;70.00;;;;;;5054387;28;20667;-77
2022/05/31 03:32:08;;;;;;;0.75;0.30;;;22.10;70.00;;;;;;5054202;28;20204;-77
2022/05/31 03:34:36;;;;;;;1.08;0.20;;;22.10;70.00;;;;;;5054405;28;20220;-77
2022/05/31 03:37:03;;;;;;;0.63;0.20;;;22.10;70.00;;;;;;5054067;28;20295;-77
2022/05/31 03:39:29;;;;;;;0.20;0.20;;;22.10;70.00;;;;;;5054133;28;20562;-78
2022/05/31 03:41:56;;;;;;;0.28;0.28;;;22.00;69.90;;;;;;5054309;28;20290;-78
2022/05/31 03:44:23;;;;;;;0.30;0.30;;;22.10;70.00;;;;;;5053046;28;20247;-78
2022/05/31 03:46:50;;;;;;;0.32;0.22;;;22.00;69.90;;;;;;5053914;28;20625;-78
2022/05/31 03:49:18;;;;;;;0.25;0.20;;;22.10;70.00;;;;;;5053951;28;20203;-78
2022/05/31 03:51:45;;;;;;;0.38;0.20;;;22.00;69.90;;;;;;5054047;28;20202;-78
2022/05/31 03:54:12;;;;;;;0.20;0.20;;;22.00;69.90;;;;;;5053610;28;20251;-78
2022/05/31 03:56:39;;;;;;;0.10;0.10;;;22.00;69.90;;;;;;5054019;28;20196;-78
2022/05/31 03:59:06;;;;;;;0.20;0.15;;;22.00;70.70;;;;;;5054373;28;20291;-78
2022/05/31 04:01:33;;;;;;;0.28;0.20;;;22.00;69.90;;;;;;5054556;28;20286;-78
2022/05/31 04:04:00;;;;;;;0.30;0.30;;;22.00;69.90;;;;;;5056581;28;20259;-80
2022/05/31 04:06:28;;;;;;;0.20;0.20;;;22.00;69.90;;;;;;5055490;28;20189;-80
2022/05/31 04:08:55;;;;;;;0.20;0.20;;;22.00;69.90;;;;;;5055500;28;20295;-79
2022/05/31 04:11:22;;;;;;;2.20;0.30;;;22.00;70.00;;;;;;5055513;28;20220;-79
2022/05/31 04:13:49;;;;;;;0.20;0.20;;;22.00;69.90;;;;;;5055073;28;20223;-79
2022/05/31 04:16:17;;;;;;;0.20;0.20;;;22.00;69.90;;;;;;5053356;28;20602;-74
2022/05/31 04:18:46;;;;;;;0.30;0.22;;;22.00;69.90;;;;;;5053322;28;20202;-74
2022/05/31 04:21:16;;;;;;;0.22;0.22;;;22.00;69.90;;;;;;5052978;28;20675;-75
2022/05/31 04:24:01;;;;;;;7.78;0.32;;;22.00;70.10;;;;;;5053271;28;20192;-76
2022/05/31 04:26:31;;;;;;;1.58;0.40;;;22.00;71.00;;;;;;5052879;28;20189;-76
2022/05/31 04:28:58;;;;;;;0.77;0.45;;;22.00;70.50;;;;;;5053167;28;20293;-75
2022/05/31 04:31:26;;;;;;;0.43;0.43;;;22.00;70.50;;;;;;5053129;28;20222;-76
2022/05/31 04:33:53;;;;;;;1.63;0.60;;;22.00;70.30;;;;;;5052866;28;20706;-76
2022/05/31 04:36:21;;;;;;;4.05;0.90;;;21.90;69.90;;;;;;5052777;28;20200;-76
2022/05/31 04:38:50;;;;;;;0.90;0.90;;;22.00;69.90;;;;;;5053251;28;20200;-77
2022/05/31 04:41:20;;;;;;;2.75;0.60;;;22.00;69.90;;;;;;5053347;28;20231;-78
2022/05/31 04:43:47;;;;;;;5.07;0.98;;;21.90;69.80;;;;;;5053789;28;20228;-78
2022/05/31 04:46:15;;;;;;;8.82;1.02;;;21.90;69.50;;;;;;5053299;28;20654;-76
2022/05/31 04:48:43;;;;;;;24.38;1.58;;;21.90;68.90;;;;;;5053114;28;20200;-77
2022/05/31 04:51:12;;;;;;;20.77;1.35;;;21.80;68.50;;;;;;5053095;28;20216;-76
2022/05/31 04:53:39;;;;;;;5.85;0.80;;;21.80;68.30;;;;;;5053077;28;20210;-77
2022/05/31 04:56:09;;;;;;;7.95;1.17;;;21.80;67.70;;;;;;5056253;28;20226;-78
2022/05/31 04:58:36;;;;;;;1.48;0.90;;;21.80;68.00;;;;;;5058178;28;20635;-80
2022/05/31 05:01:06;;;;;;;4.53;0.90;;;21.70;67.00;;;;;;5057319;28;20231;-76
2022/05/31 05:03:34;;;;;;;1.90;0.70;;;21.70;66.70;;;;;;5057057;28;20200;-76
2022/05/31 05:06:02;;;;;;;2.90;0.70;;;21.70;66.40;;;;;;5056919;28;20191;-76
2022/05/31 05:08:29;;;;;;;6.80;0.90;;;21.70;66.10;;;;;;5056524;28;20669;-75
2022/05/31 05:10:56;;;;;;;4.97;0.80;;;21.70;65.80;;;;;;5056732;28;20226;-76
2022/05/31 05:13:24;;;;;;;2.17;0.50;;;21.70;65.50;;;;;;5056719;28;20239;-76
2022/05/31 05:15:53;;;;;;;4.55;0.88;;;21.70;65.20;;;;;;5056642;28;20223;-76
2022/05/31 05:18:20;;;;;;;5.25;0.50;;;21.70;64.90;;;;;;5056790;28;20625;-75
2022/05/31 05:20:47;;;;;;;2.63;0.88;;;21.70;64.60;;;;;;5057668;28;20235;-80
2022/05/31 05:23:14;;;;;;;19.52;2.05;;;21.70;64.40;;;;;;5062195;28;20239;-79
2022/05/31 05:25:41;;;;;;;1.05;1.05;;;21.70;63.60;;;;;;5061176;28;20271;-79
2022/05/31 05:30:50;;;;;;;4.82;1.90;;;21.60;62.80;;;;;;5056036;28;20196;-75
2022/05/31 05:33:17;;;;;;;3.28;1.80;;;21.50;62.10;;;;;;5057123;28;20192;-76
2022/05/31 05:35:44;;;;;;;21.73;2.35;;;21.50;61.50;;;;;;5056707;28;20228;-76
2022/05/31 05:38:11;;;;;;;7.25;1.92;;;21.50;60.80;;;;;;5056276;28;20232;-75
2022/05/31 05:40:38;;;;;;;4.60;2.10;;;21.40;60.40;;;;;;5055929;28;20222;-75
2022/05/31 05:43:08;;;;;;;6.15;2.25;;;21.40;60.20;;;;;;5056176;28;20283;-75
2022/05/31 05:45:35;;;;;;;4.13;1.48;;;21.50;59.80;;;;;;5056386;28;20228;-75
2022/05/31 05:48:05;;;;;;;3.33;1.95;;;21.40;59.50;;;;;;5056353;28;20206;-75
2022/05/31 05:50:33;;;;;;;3.58;1.45;;;21.50;59.20;;;;;;5055926;28;20226;-75
2022/05/31 05:53:05;;;;;;;5.07;1.45;;;21.50;58.90;;;;;;5056017;28;20200;-75
2022/05/31 05:55:32;;;;;;;1.85;1.30;;;21.50;58.60;;;;;;5055964;28;20224;-75
2022/05/31 05:58:00;;;;;;;2.67;1.63;;;21.50;58.40;;;;;;5056165;28;20597;-75
2022/05/31 06:00:26;;;;;;;3.00;1.13;;;21.50;58.10;;;;;;5055912;28;20197;-75
2022/05/31 06:03:06;;;;;;;1.33;1.20;;;21.50;57.90;;;;;;5055817;28;20200;-75
2022/05/31 06:05:35;;;;;;;2.65;1.13;;;21.60;58.00;;;;;;5055037;28;20657;-75
2022/05/31 06:08:06;;;;;;;1.40;1.10;;;21.60;58.30;;;;;;5054657;28;20291;-75
2022/05/31 06:10:37;;;;;;;1.42;1.23;;;21.60;57.30;;;;;;5055309;28;20215;-75
2022/05/31 06:13:08;;;;;;;4.72;1.30;;;21.60;57.10;;;;;;5055368;28;20543;-75
2022/05/31 06:15:39;;;;;;;4.32;0.90;;;21.60;56.80;;;;;;5055552;28;20242;-75
2022/05/31 06:18:10;;;;;;;1.50;0.85;;;21.60;56.60;;;;;;5055693;28;20184;-75
2022/05/31 06:20:38;;;;;;;2.20;0.93;;;21.60;56.30;;;;;;5055528;28;20287;-75
2022/05/31 06:23:05;;;;;;;0.85;0.85;;;21.60;56.10;;;;;;5056245;28;20290;-75
2022/05/31 06:25:32;;;;;;;2.35;1.10;;;21.60;55.90;;;;;;5055359;28;20306;-75
2022/05/31 06:27:59;;;;;;;1.10;1.00;;;21.60;55.60;;;;;;5055359;28;20206;-75
2022/05/31 06:30:26;;;;;;;0.68;0.68;;;21.60;55.40;;;;;;5055216;28;20220;-75
2022/05/31 06:32:53;;;;;;;0.75;0.75;;;21.60;55.20;;;;;;5055244;28;20204;-75
2022/05/31 06:35:20;;;;;;;2.78;1.05;;;21.60;55.00;;;;;;5055141;28;20254;-75
2022/05/31 06:37:48;;;;;;;5.57;1.15;;;21.60;54.70;;;;;;5054818;28;20655;-75
2022/05/31 06:40:15;;;;;;;1.65;0.60;;;21.60;54.40;;;;;;5054849;28;20210;-75
2022/05/31 06:42:42;;;;;;;1.20;0.90;;;21.60;54.30;;;;;;5054779;28;20659;-75
2022/05/31 06:45:10;;;;;;;2.65;0.82;;;21.60;54.10;;;;;;5054968;28;20307;-75
2022/05/31 06:47:37;;;;;;;2.70;0.98;;;21.60;53.90;;;;;;5055012;28;20204;-75
2022/05/31 06:50:04;;;;;;;1.13;0.82;;;21.60;53.80;;;;;;5054865;28;20234;-75
2022/05/31 06:58:01;;;;;;;1.23;1.05;;;21.60;53.20;;;;;;5055195;28;20266;-75
2022/05/31 07:00:28;;;;;;;3.65;0.95;;;21.60;53.20;;;;;;5054627;28;20196;-75
2022/05/31 07:02:56;;;;;;;0.65;0.63;;;21.60;53.20;;;;;;5054680;28;20243;-75
2022/05/31 07:05:23;;;;;;;1.95;0.75;;;21.60;53.10;;;;;;5054149;28;20281;-75
2022/05/31 07:07:53;;;;;;;2.83;1.02;;;21.60;52.80;;;;;;5054601;28;20235;-75
2022/05/31 07:10:22;;;;;;;1.75;0.70;;;21.60;52.70;;;;;;5054404;28;20637;-75
2022/05/31 07:12:50;;;;;;;3.55;0.75;;;21.60;52.60;;;;;;5054522;28;20286;-75
2022/05/31 07:15:18;;;;;;;1.75;0.80;;;21.60;52.40;;;;;;5054341;28;20224;-75
2022/05/31 07:17:46;;;;;;;2.45;0.80;;;21.60;52.30;;;;;;5054141;28;20203;-75
2022/05/31 07:20:14;;;;;;;3.63;0.80;;;21.60;52.20;;;;;;5054354;28;20228;-75
2022/05/31 07:22:41;;;;;;;2.50;0.73;;;21.60;52.00;;;;;;5053987;28;20196;-75
2022/05/31 07:25:09;;;;;;;1.77;0.80;;;21.60;51.90;;;;;;5054230;28;20216;-75
2022/05/31 07:27:38;;;;;;;1.38;0.75;;;21.70;51.90;;;;;;5053948;28;20659;-75
2022/05/31 07:30:06;;;;;;;0.70;0.70;;;21.70;51.80;;;;;;5054243;28;20207;-75
2022/05/31 07:32:33;;;;;;;0.70;0.70;;;21.70;51.60;;;;;;5053774;28;20714;-75
2022/05/31 07:35:00;;;;;;;1.35;0.80;;;21.60;51.40;;;;;;5054063;28;20226;-75
2022/05/31 07:37:27;;;;;;;0.70;0.70;;;21.70;51.40;;;;;;5053750;28;20698;-75
2022/05/31 07:39:54;;;;;;;1.52;0.70;;;21.70;51.30;;;;;;5053742;28;20704;-75
2022/05/31 07:42:21;;;;;;;3.40;0.68;;;21.70;51.20;;;;;;5053659;28;20731;-75
2022/05/31 07:44:52;;;;;;;2.28;0.68;;;21.70;51.10;;;;;;5053864;28;20226;-75
2022/05/31 07:47:19;;;;;;;0.68;0.68;;;21.70;51.00;;;;;;5053638;28;20628;-75
2022/05/31 07:49:46;;;;;;;0.80;0.60;;;21.70;51.00;;;;;;5053551;28;20678;-75
2022/05/31 07:52:13;;;;;;;0.70;0.60;;;21.70;50.80;;;;;;5053728;28;20226;-75
2022/05/31 07:54:40;;;;;;;0.50;0.50;;;21.70;50.70;;;;;;5053427;28;20310;-75
2022/05/31 07:57:07;;;;;;;0.73;0.50;;;21.70;50.60;;;;;;5053688;28;20202;-75
2022/05/31 07:59:35;;;;;;;1.17;0.60;;;21.70;50.50;;;;;;5053681;28;20291;-73
2022/05/31 08:02:03;;;;;;;2.05;1.00;;;21.70;50.50;;;;;;5053302;28;20714;-74
2022/05/31 08:04:30;;;;;;;0.57;0.57;;;21.70;50.30;;;;;;5053428;28;20231;-74
2022/05/31 08:06:59;;;;;;;0.57;0.57;;;21.70;50.30;;;;;;5053627;28;20310;-74
2022/05/31 08:09:27;;;;;;;0.60;0.60;;;21.70;50.20;;;;;;5053252;28;20632;-74
2022/05/31 08:11:54;;;;;;;1.60;0.60;;;21.70;50.10;;;;;;5053479;28;20582;-73
2022/05/31 08:14:21;;;;;;;0.50;0.50;;;21.70;50.10;;;;;;5053120;28;20658;-74
2022/05/31 08:16:48;;;;;;;0.52;0.45;;;21.70;50.00;;;;;;5053216;28;20243;-73
2022/05/31 08:19:16;;;;;;;0.60;0.60;;;21.70;49.90;;;;;;5053404;28;20236;-74
2022/05/31 08:21:43;;;;;;;6.20;0.43;;;21.70;49.80;;;;;;5053552;28;20275;-73
2022/05/31 08:24:11;;;;;;;1.55;0.50;;;21.70;49.70;;;;;;5053105;28;20247;-74
2022/05/31 08:26:38;;;;;;;2.20;0.57;;;21.70;49.70;;;;;;5053181;28;20663;-73
2022/05/31 08:29:05;;;;;;;0.75;0.50;;;21.70;49.70;;;;;;5053376;28;20204;-73
2022/05/31 08:31:36;;;;;;;2.10;0.50;;;21.80;49.70;;;;;;5057319;28;20310;-74
2022/05/31 08:34:05;;;;;;;1.65;0.50;;;21.80;49.60;;;;;;5058158;28;20251;-74
2022/05/31 08:36:33;;;;;;;7.28;0.60;;;21.80;49.60;;;;;;5057401;28;20211;-74
2022/05/31 08:39:00;;;;;;;1.55;0.60;;;21.80;49.40;;;;;;5057424;28;20287;-73
2022/05/31 08:41:30;;;;;;;1.90;0.50;;;21.70;49.30;;;;;;5057358;28;20196;-73
2022/05/31 08:44:06;;;;;;;2.15;0.70;;;21.80;49.30;;;;;;5057219;28;20228;-73
2022/05/31 08:46:46;;;;;;;0.63;0.43;;;21.80;49.20;;;;;;5057376;28;20242;-73
2022/05/31 08:49:19;;;;;;;2.50;0.40;;;21.80;49.20;;;;;;5057330;28;20184;-73
2022/05/31 08:52:03;;;;;;;1.48;0.50;;;21.80;49.10;;;;;;5057131;28;20571;-73
2022/05/31 08:57:28;;;;;;;2.05;0.50;;;21.80;48.90;;;;;;5057492;28;20196;-73
2022/05/31 09:00:00;;;;;;;1.80;0.50;;;21.80;48.80;;;;;;5057171;28;20238;-73
2022/05/31 09:02:33;;;;;;;8.95;0.50;;;21.80;48.60;;;;;;5057164;28;20185;-73
2022/05/31 09:05:04;;;;;;;2.70;0.52;;;21.80;48.60;;;;;;5056610;28;20234;-76
2022/05/31 09:07:39;;;;;;;1.90;0.43;;;21.80;48.60;;;;;;5056989;28;20180;-76
2022/05/31 09:10:12;;;;;;;0.90;0.80;;;21.80;48.60;;;;;;5057014;28;20190;-77
2022/05/31 09:12:45;;;;;;;0.63;0.50;;;21.80;48.60;;;;;;5056858;28;20208;-77
2022/05/31 09:15:18;;;;;;;2.63;0.40;;;21.80;48.60;;;;;;5056740;28;20219;-77
2022/05/31 09:17:58;;;;;;;0.63;0.40;;;21.80;48.60;;;;;;5057149;28;20279;-77
2022/05/31 09:20:31;;;;;;;2.30;0.77;;;21.80;48.60;;;;;;5056755;28;20192;-77
2022/05/31 09:23:00;;;;;;;3.80;0.52;;;21.90;48.70;;;;;;5056336;28;20191;-77
2022/05/31 09:25:29;;;;;;;0.40;0.40;;;21.80;48.60;;;;;;5056643;28;20224;-76
2022/05/31 09:27:56;;;;;;;2.42;0.40;;;21.80;48.60;;;;;;5056586;28;20200;-76
2022/05/31 09:30:27;;;;;;;0.50;0.50;;;21.80;48.60;;;;;;5056750;28;20294;-76
2022/05/31 09:33:06;;;;;;;1.75;0.32;;;21.80;48.50;;;;;;5056128;28;20698;-77
2022/05/31 09:35:51;;;;;;;0.50;0.40;;;21.90;49.10;;;;;;5056391;28;20220;-76
2022/05/31 09:38:38;;;;;;;1.45;0.40;;;21.90;48.40;;;;;;5056360;28;20189;-78
2022/05/31 09:41:11;;;;;;;0.30;0.30;;;21.90;48.30;;;;;;5025378;28;20282;-78
2022/05/31 09:43:43;;;;;;;0.85;0.82;;;21.90;48.30;;;;;;5056148;28;20195;-77
2022/05/31 09:46:12;;;;;;;3.92;0.55;;;21.90;48.30;;;;;;5055909;28;20195;-77
2022/05/31 09:48:46;;;;;;;1.85;0.50;;;21.90;48.30;;;;;;5056359;28;20206;-77
2022/05/31 09:51:24;;;;;;;0.73;0.45;;;21.90;48.20;;;;;;5056101;28;20219;-76
2022/05/31 09:59:26;;;;;;;3.90;0.82;;;21.90;48.10;;;;;;5056144;28;20315;-78
2022/05/31 10:01:53;;;;;;;1.73;0.60;;;21.90;48.10;;;;;;5055880;28;20247;-77
2022/05/31 10:04:26;;;;;;;2.80;0.80;;;21.90;48.00;;;;;;5055419;28;20234;-76
2022/05/31 10:06:58;;;;;;;0.95;0.50;;;21.90;48.00;;;;;;5055893;28;20296;-77
2022/05/31 10:09:33;;;;;;;1.15;0.40;;;21.90;47.90;;;;;;5056057;28;20214;-77
2022/05/31 10:12:19;;;;;;;3.53;0.60;;;22.00;47.90;;;;;;5055635;28;20253;-77
2022/05/31 10:14:49;;;;;;;0.50;0.40;;;22.00;47.80;;;;;;5055337;28;20766;-77
2022/05/31 10:17:32;;;;;;;0.85;0.50;;;21.90;47.80;;;;;;5055953;28;20200;-77
2022/05/31 10:20:20;;;;;;;4.85;0.50;;;22.00;47.70;;;;;;5055638;28;20184;-77
2022/05/31 10:22:59;;;;;;;6.18;1.13;;;22.00;47.70;;;;;;5056109;28;20191;-77
2022/05/31 10:25:32;;;;;;;3.05;0.50;;;22.00;47.70;;;;;;5055452;28;20220;-77
2022/05/31 10:28:02;;;;;;;0.57;0.57;;;22.00;47.70;;;;;;5055467;28;20269;-77
2022/05/31 10:30:30;;;;;;;4.22;0.70;;;22.00;47.70;;;;;;5055328;28;20283;-77
2022/05/31 10:32:59;;;;;;;3.13;0.50;;;22.00;47.60;;;;;;5055218;28;20561;-77
2022/05/31 10:35:29;;;;;;;2.38;0.70;;;22.00;47.60;;;;;;5054904;28;20273;-78
2022/05/31 10:38:00;;;;;;;1.75;0.40;;;22.00;47.50;;;;;;5054907;28;20660;-77
2022/05/31 10:40:40;;;;;;;1.92;0.40;;;22.00;47.40;;;;;;5055281;28;20190;-78
2022/05/31 10:43:35;;;;;;;1.38;0.43;;;22.00;47.30;;;;;;5055272;28;20184;-78
2022/05/31 10:46:08;;;;;;;0.55;0.40;;;22.00;47.20;;;;;;5020250;28;20226;-78
2022/05/31 10:48:40;;;;;;;0.30;0.30;;;22.00;47.30;;;;;;5058122;28;20192;-78
2022/05/31 10:51:14;;;;;;;0.30;0.30;;;22.00;47.30;;;;;;5058987;28;20640;-77
2022/05/31 10:54:00;;;;;;;0.30;0.30;;;22.00;47.30;;;;;;5058800;28;20635;-79
2022/05/31 10:56:38;;;;;;;0.50;0.30;;;22.00;46.80;;;;;;5059884;28;20216;-78
2022/05/31 10:59:15;;;;;;;0.35;0.35;;;22.00;47.30;;;;;;5059972;28;20191;-77
2022/05/31 11:02:03;;;;;;;0.38;0.38;;;22.00;47.30;;;;;;5059602;28;20210;-79
2022/05/31 11:04:49;;;;;;;3.00;0.38;;;22.10;47.30;;;;;;5059860;28;20250;-77
2022/05/31 11:07:28;;;;;;;1.42;0.40;;;22.10;47.30;;;;;;5060324;28;20643;-77
2022/05/31 11:13:08;;;;;;;0.20;0.20;;;22.10;47.20;;;;;;5061160;28;20231;-78
2022/05/31 11:15:44;;;;;;;2.20;0.30;;;22.10;47.20;;;;;;5060151;28;20219;-79
2022/05/31 11:18:50;;;;;;;6.05;0.40;;;22.10;47.30;;;;;;5060359;28;20188;-79
2022/05/31 11:21:34;;;;;;;0.38;0.22;;;22.10;47.10;;;;;;5060503;28;20195;-78
2022/05/31 11:24:17;;;;;;;0.40;0.40;;;22.10;47.20;;;;;;5060045;28;20220;-78
2022/05/31 11:26:59;;;;;;;5.30;0.43;;;22.10;47.20;;;;;;5060736;28;20670;-79
2022/05/31 11:29:58;;;;;;;1.42;0.40;;;22.10;47.70;;;;;;5061193;28;20188;-78
2022/05/31 11:32:41;;;;;;;9.48;0.60;;;22.10;47.10;;;;;;5059389;28;20211;-78
2022/05/31 11:35:24;;;;;;;7.22;0.75;;;22.10;47.10;;;;;;5061292;28;20234;-74
2022/05/31 11:38:04;;;;;;;2.42;0.40;;;22.10;47.10;;;;;;5060985;28;20195;-77
2022/05/31 11:40:46;;;;;;;3.42;0.70;;;22.10;47.10;;;;;;5059200;28;20241;-78
2022/05/31 11:43:44;;;;;;;4.95;0.70;;;22.10;47.20;;;;;;5060108;28;20219;-78
2022/05/31 11:46:22;;;;;;;4.55;0.50;;;22.20;47.30;;;;;;5060755;28;20200;-77
2022/05/31 11:48:57;;;;;;;6.68;0.88;;;22.20;47.40;;;;;;5061433;28;20184;-78
2022/05/31 11:51:40;;;;;;;11.45;0.80;;;22.20;47.30;;;;;;5062106;28;20185;-78
2022/05/31 11:54:32;;;;;;;1.55;0.82;;;22.20;47.30;;;;;;5061096;28;20265;-75
2022/05/31 11:57:11;;;;;;;10.73;1.17;;;22.20;47.40;;;;;;5060070;28;20200;-76
2022/05/31 11:59:43;;;;;;;9.75;1.02;;;22.20;47.50;;;;;;5059873;28;20184;-76
2022/05/31 12:02:21;;;;;;;4.75;1.08;;;22.20;47.50;;;;;;5061682;28;20186;-77
2022/05/31 12:04:53;;;;;;;12.70;1.10;;;22.20;47.40;;;;;;5059365;28;20342;-76
2022/05/31 12:07:27;;;;;;;5.07;0.70;;;22.20;47.40;;;;;;5060725;28;20619;-75
2022/05/31 12:09:59;;;;;;;5.30;1.00;;;22.20;47.50;;;;;;5060723;28;20216;-77
2022/05/31 12:12:30;;;;;;;5.38;1.08;;;22.20;47.40;;;;;;5059507;28;20200;-77
2022/05/31 12:15:06;;;;;;;8.27;1.10;;;22.20;47.40;;;;;;5059195;28;20256;-77
2022/05/31 12:17:48;;;;;;;13.48;0.80;;;22.20;47.40;;;;;;5060279;28;20211;-78
2022/05/31 12:20:23;;;;;;;4.32;0.60;;;22.30;47.50;;;;;;5060370;28;20184;-77
2022/05/31 12:23:03;;;;;;;6.68;0.95;;;22.20;47.40;;;;;;5061508;28;20180;-74
2022/05/31 12:25:35;;;;;;;2.75;0.70;;;22.20;47.30;;;;;;5060414;28;20238;-77
2022/05/31 12:28:10;;;;;;;2.88;0.68;;;22.20;47.40;;;;;;5062149;28;20184;-77
2022/05/31 12:30:47;;;;;;;5.05;0.60;;;22.20;47.50;;;;;;5061905;28;20214;-77
2022/05/31 12:33:41;;;;;;;6.55;0.60;;;22.20;47.50;;;;;;5061383;28;20208;-77
2022/05/31 12:36:09;;;;;;;0.50;0.50;;;22.20;47.50;;;;;;5062191;28;20185;-77
2022/05/31 12:39:06;;;;;;;0.73;0.50;;;22.20;47.60;;;;;;5061858;28;20291;-78
2022/05/31 12:41:37;;;;;;;4.45;0.68;;;22.30;47.60;;;;;;5062477;28;20188;-77
2022/05/31 12:44:11;;;;;;;1.33;0.40;;;22.20;47.70;;;;;;5056438;28;20226;-78
2022/05/31 12:46:41;;;;;;;4.05;0.40;;;22.30;47.80;;;;;;5058734;28;20203;-79
2022/05/31 12:49:20;;;;;;;3.70;0.30;;;22.20;47.80;;;;;;5061787;28;20410;-78
2022/05/31 12:52:35;;;;;;;3.50;0.70;;;22.30;47.90;;;;;;5063556;28;20204;-79
2022/05/31 12:55:10;;;;;;;3.72;0.40;;;22.30;47.90;;;;;;5061188;28;20212;-79
2022/05/31 13:00:42;;;;;;;1.15;0.30;;;22.30;48.10;;;;;;5059317;28;20223;-78
2022/05/31 13:03:42;;;;;;;2.47;0.40;;;22.30;48.20;;;;;;5059171;28;20195;-78
2022/05/31 13:06:15;;;;;;;1.00;0.50;;;22.30;48.20;;;;;;5058922;28;20180;-78
2022/05/31 13:08:55;;;;;;;2.92;0.75;;;22.30;48.50;;;;;;5060263;28;20204;-76
2022/05/31 13:20:09;;;;;;;7.88;0.50;;;22.40;49.10;;;;;;5062566;28;20649;-77
2022/05/31 13:22:39;;;;;;;4.32;0.50;;;22.40;49.10;;;;;;5057819;28;20181;-77
2022/05/31 13:25:14;;;;;;;4.53;0.50;;;22.40;49.70;;;;;;5057743;28;20220;-77
2022/05/31 13:27:42;;;;;;;3.10;0.50;;;22.40;49.10;;;;;;5058318;28;20190;-78
2022/05/31 13:30:12;;;;;;;2.03;0.60;;;22.40;49.10;;;;;;5057459;28;20334;-78
2022/05/31 13:32:40;;;;;;;1.00;0.40;;;22.40;49.10;;;;;;5057191;28;20230;-77
2022/05/31 13:35:12;;;;;;;1.25;0.45;;;22.40;49.10;;;;;;5056993;28;20223;-79
2022/05/31 13:37:57;;;;;;;2.05;0.60;;;22.40;49.10;;;;;;5059331;28;20597;-77